createdAt,value
2022-10-31T18:15:30.940Z,100494.53
2022-10-31T18:17:58.211Z,100500.13
2022-10-31T18:20:25.526Z,100492.13
2022-10-31T18:22:52.667Z,100500.41
2022-10-31T18:25:20.247Z,100499.88
2022-10-31T18:27:47.747Z,100501.56
2022-10-31T18:30:15.114Z,100488.56
2022-10-31T18:32:42.607Z,100498.38
2022-10-31T18:35:10.907Z,100501.53
2022-10-31T18:37:38.533Z,100499.03
2022-10-31T18:40:06.312Z,100497.38
2022-10-31T18:42:33.544Z,100500.25
2022-10-31T18:45:11.194Z,100497.19
2022-10-31T18:47:44.907Z,100501.94
2022-10-31T18:50:12.673Z,100502.44
2022-10-31T18:52:41.405Z,100505.31
2022-10-31T18:55:09.295Z,100495.81
2022-10-31T18:57:36.670Z,100506.78
2022-10-31T19:00:08.418Z,100498.78
2022-10-31T19:02:37.129Z,100507.31
2022-10-31T19:05:05.626Z,100490.94
2022-10-31T19:07:34.373Z,100505.84
2022-10-31T19:10:01.453Z,100508.91
2022-10-31T19:12:28.597Z,100505.88
2022-10-31T19:14:55.601Z,100501.25
2022-10-31T19:17:25.539Z,100503.09
2022-10-31T19:19:53.133Z,100510.25
2022-10-31T19:22:20.214Z,100502.47
2022-10-31T19:24:48.490Z,100502.81
2022-10-31T19:27:15.935Z,100507.88
2022-10-31T19:29:43.490Z,100509.81
2022-10-31T19:32:10.994Z,100488.19
2022-10-31T19:34:38.481Z,100512.44
2022-10-31T19:37:05.423Z,100506.31
2022-10-31T19:39:38.634Z,100500.84
2022-10-31T19:42:08.445Z,100510.31
2022-10-31T19:44:35.660Z,100503.53
2022-10-31T19:47:02.602Z,100510.81
2022-10-31T19:49:30.126Z,100514.38
2022-10-31T19:51:57.946Z,100510.81
2022-10-31T19:54:25.556Z,100510.03
2022-10-31T19:56:56.002Z,100512.13
2022-10-31T19:59:23.381Z,100508.88
2022-10-31T20:01:50.935Z,100516.41
2022-10-31T20:04:18.523Z,100501.13
2022-10-31T20:06:45.872Z,100509.94
2022-10-31T20:09:14.745Z,100504.94
2022-10-31T20:11:44.986Z,100509.13
2022-10-31T20:14:15.090Z,100508.44
2022-10-31T20:16:43.179Z,100517.91
2022-10-31T20:19:10.143Z,100510.78
2022-10-31T20:21:40.234Z,100515.25
2022-10-31T20:24:09.941Z,100517.75
2022-10-31T20:26:39.684Z,100520.16
2022-10-31T20:29:07.586Z,100520.38
2022-10-31T20:31:37.177Z,100519.53
2022-10-31T20:34:05.321Z,100522.75
2022-10-31T20:36:32.608Z,100523.66
2022-10-31T20:39:00.539Z,100522.97
2022-10-31T20:41:27.813Z,100519.44
2022-10-31T20:43:55.161Z,100513.63
2022-10-31T20:46:24.956Z,100525.69
2022-10-31T20:48:53.172Z,100530.69
2022-10-31T20:51:25.477Z,100529.22
2022-10-31T20:53:54.380Z,100526.41
2022-10-31T20:56:24.902Z,100532.63
2022-10-31T20:58:52.504Z,100519.72
2022-10-31T21:01:25.131Z,100522.59
2022-10-31T21:03:52.746Z,100511.06
2022-10-31T21:06:21.756Z,100520.34
2022-10-31T21:08:49.240Z,100520.50
2022-10-31T21:11:21.758Z,100523.19
2022-10-31T21:13:50.373Z,100522.69
2022-10-31T21:16:23.789Z,100518.75
2022-10-31T21:18:52.161Z,100519.59
2022-10-31T21:21:32.003Z,100515.16
2022-10-31T21:24:21.283Z,100516.41
2022-10-31T21:26:51.255Z,100511.00
2022-10-31T21:29:20.118Z,100522.19
2022-10-31T21:31:48.800Z,100512.06
2022-10-31T21:34:16.118Z,100513.00
2022-10-31T21:36:43.123Z,100511.00
2022-10-31T21:39:10.452Z,100515.88
2022-10-31T21:41:37.843Z,100506.44
2022-10-31T21:44:05.272Z,100497.66
2022-10-31T21:46:33.827Z,100504.84
2022-10-31T21:49:03.075Z,100499.94
2022-10-31T21:51:34.472Z,100502.94
2022-10-31T21:54:20.963Z,100487.91
2022-10-31T21:56:48.136Z,100489.06
2022-10-31T21:59:15.301Z,100495.22
2022-10-31T22:01:42.356Z,100489.16
2022-10-31T22:04:09.793Z,100484.69
2022-10-31T22:06:36.892Z,100482.16
2022-10-31T22:09:06.740Z,100494.88
2022-10-31T22:11:34.615Z,100484.19
2022-10-31T22:14:02.484Z,100486.72
2022-10-31T22:16:30.903Z,100486.41
2022-10-31T22:18:59.979Z,100478.97
2022-10-31T22:21:28.606Z,100476.81
2022-10-31T22:24:03.295Z,100474.97
2022-10-31T22:26:32.678Z,100473.13
2022-10-31T22:29:00.898Z,100462.41
2022-10-31T22:31:29.340Z,100456.78
2022-10-31T22:33:56.808Z,100465.38
2022-10-31T22:36:29.647Z,100467.22
2022-10-31T22:38:57.876Z,100471.06
2022-10-31T22:41:27.590Z,100471.00
2022-10-31T22:43:55.643Z,100472.94
2022-10-31T22:46:28.020Z,100477.53
2022-10-31T22:49:00.456Z,100476.47
2022-10-31T22:51:33.142Z,100478.94
2022-10-31T22:54:00.590Z,100470.63
2022-10-31T22:56:33.202Z,100478.72
2022-10-31T22:59:01.128Z,100479.69
2022-10-31T23:01:31.501Z,100463.25
2022-10-31T23:03:58.671Z,100466.28
2022-10-31T23:06:27.711Z,100470.78
2022-10-31T23:08:54.946Z,100445.03
2022-10-31T23:11:21.964Z,100457.56
2022-10-31T23:14:09.763Z,100458.66
2022-10-31T23:16:38.134Z,100454.41
2022-10-31T23:19:08.371Z,100462.97
2022-10-31T23:21:55.988Z,100464.22
2022-10-31T23:24:43.302Z,100464.13
2022-10-31T23:27:15.877Z,100460.25
2022-10-31T23:29:52.786Z,100462.56
2022-10-31T23:32:22.618Z,100439.28
2022-10-31T23:34:52.692Z,100459.97
2022-10-31T23:37:22.100Z,100467.47
2022-10-31T23:39:49.329Z,100453.97
2022-10-31T23:42:17.217Z,100463.59
2022-10-31T23:44:44.597Z,100459.72
2022-10-31T23:47:12.323Z,100445.75
2022-10-31T23:49:39.328Z,100456.16
2022-10-31T23:52:07.316Z,100460.41
2022-10-31T23:54:34.428Z,100465.06
2022-10-31T23:57:01.706Z,100426.81
2022-10-31T23:59:31.448Z,100447.00
